Time;durP1;ratioP1;P1;durP2;ratioP2;P2;SDS_P1;SDS_P2;PMS_P1;PMS_P2;Temp;Humidity;BMP_temperature;BMP_pressure;BME280_temperature;BME280_humidity;BME280_pressure;Samples;Min_cycle;Max_cycle;Signal;HPM_P1;HPM_P2
2022/11/09 00:02:11;;;;;;;;;;;;;;;;;;6252189;22;19919;-91
2022/11/09 00:04:40;;;;;;;;;;;;;;;;;;6254277;22;19942;-91
2022/11/09 00:07:06;;;;;;;;;;;;;;;;;;6256988;22;20400;-91
2022/11/09 00:09:32;;;;;;;;;;;;;;;;;;6254995;22;20459;-93
2022/11/09 00:11:59;;;;;;;;;;;;;;;;;;6255294;22;19946;-90
2022/11/09 00:14:24;;;;;;;;;;;;;;;;;;6230618;22;19946;-91
2022/11/09 00:16:50;;;;;;;;;;;;;;;;;;6256251;22;20302;-90
2022/11/09 00:19:16;;;;;;;;;;;;;;;;;;6253048;22;19923;-90
2022/11/09 00:21:42;;;;;;;;;;;;;;;;;;6256489;22;19998;-90
2022/11/09 00:24:08;;;;;;;;;;;;;;;;;;6253778;22;20393;-90
2022/11/09 00:26:34;;;;;;;;;;;;;;;;;;6252123;22;20008;-91
2022/11/09 00:29:00;;;;;;;;;;;;;;;;;;6230459;22;19966;-90
2022/11/09 00:31:26;;;;;;;;;;;;;;;;;;6226917;22;19927;-91
2022/11/09 00:33:52;;;;;;;;;;;;;;;;;;6256821;22;19919;-91
2022/11/09 00:36:18;;;;;;;;;;;;;;;;;;6224052;22;19941;-92
2022/11/09 00:38:44;;;;;;;;;;;;;;;;;;6229841;22;19923;-92
2022/11/09 00:41:10;;;;;;;;;;;;;;;;;;6228892;22;19919;-91
2022/11/09 00:43:36;;;;;;;;;;;;;;;;;;6253377;22;20226;-92
2022/11/09 00:46:02;;;;;;;;;;;;;;;;;;6231046;22;20276;-92
2022/11/09 00:48:28;;;;;;;;;;;;;;;;;;6225317;22;20062;-91
2022/11/09 00:50:54;;;;;;;;;;;;;;;;;;6251827;22;19919;-92
2022/11/09 00:53:20;;;;;;;;;;;;;;;;;;6226410;22;19915;-91
2022/11/09 00:55:46;;;;;;;;;;;;;;;;;;6230612;22;19919;-92
2022/11/09 00:58:12;;;;;;;;;;;;;;;;;;6227296;22;19947;-91
2022/11/09 01:00:38;;;;;;;;;;;;;;;;;;6225609;22;19966;-91
2022/11/09 01:03:04;;;;;;;;;;;;;;;;;;6253353;22;19919;-92
2022/11/09 01:05:30;;;;;;;;;;;;;;;;;;6252658;22;19919;-91
2022/11/09 01:07:56;;;;;;;;;;;;;;;;;;6226796;22;20437;-92
2022/11/09 01:10:22;;;;;;;;;;;;;;;;;;6223840;22;19923;-90
2022/11/09 01:12:48;;;;;;;;;;;;;;;;;;6258591;22;20330;-92
2022/11/09 01:15:13;;;;;;;;;;;;;;;;;;6230067;22;19966;-92
2022/11/09 01:17:39;;;;;;;;;;;;;;;;;;6260848;22;19919;-92
2022/11/09 01:20:05;;;;;;;;;;;;;;;;;;6234180;22;19998;-91
2022/11/09 01:22:31;;;;;;;;;;;;;;;;;;6230908;22;20347;-92
2022/11/09 01:24:57;;;;;;;;;;;;;;;;;;6231421;22;19989;-91
2022/11/09 01:27:23;;;;;;;;;;;;;;;;;;6227900;22;19925;-92
2022/11/09 01:29:49;;;;;;;;;;;;;;;;;;6256521;22;19920;-92
2022/11/09 01:32:15;;;;;;;;;;;;;;;;;;6254844;22;19920;-92
2022/11/09 01:34:42;;;;;;;;;;;;;;;;;;6232610;22;19986;-91
2022/11/09 01:37:08;;;;;;;;;;;;;;;;;;6228838;22;19923;-92
2022/11/09 01:39:34;;;;;;;;;;;;;;;;;;6228870;22;20480;-91
2022/11/09 01:42:00;;;;;;;;;;;;;;;;;;6229280;22;20687;-92
2022/11/09 01:44:26;;;;;;;;;;;;;;;;;;6227899;22;20336;-91
2022/11/09 01:46:52;;;;;;;;;;;;;;;;;;6231229;22;20372;-92
2022/11/09 01:49:18;;;;;;;;;;;;;;;;;;6256169;22;20375;-92
2022/11/09 01:51:44;;;;;;;;;;;;;;;;;;6231716;22;19927;-92
2022/11/09 01:54:10;;;;;;;;;;;;;;;;;;6256955;22;19919;-92
2022/11/09 01:56:36;;;;;;;;;;;;;;;;;;6226790;22;19927;-92
2022/11/09 01:59:02;;;;;;;;;;;;;;;;;;6258632;22;20343;-91
2022/11/09 02:01:27;;;;;;;;;;;;;;;;;;6228268;22;19924;-91
2022/11/09 02:03:54;;;;;;;;;;;;;;;;;;6228618;22;19926;-91
2022/11/09 02:06:20;;;;;;;;;;;;;;;;;;6254043;22;19919;-92
2022/11/09 02:08:45;;;;;;;;;;;;;;;;;;6226813;22;19927;-91
2022/11/09 02:11:15;;;;;;;;;;;;;;;;;;6252766;22;20244;-91
2022/11/09 02:13:40;;;;;;;;;;;;;;;;;;6254536;22;19921;-91
2022/11/09 02:16:06;;;;;;;;;;;;;;;;;;6258515;22;20054;-92
2022/11/09 02:18:32;;;;;;;;;;;;;;;;;;6228545;22;19923;-91
2022/11/09 02:20:58;;;;;;;;;;;;;;;;;;6256443;22;19919;-91
2022/11/09 02:23:24;;;;;;;;;;;;;;;;;;6228571;22;19919;-93
2022/11/09 02:25:50;;;;;;;;;;;;;;;;;;6233490;22;20278;-90
2022/11/09 02:28:16;;;;;;;;;;;;;;;;;;6257327;22;19969;-91
2022/11/09 02:30:42;;;;;;;;;;;;;;;;;;6257843;22;19962;-90
2022/11/09 02:33:08;;;;;;;;;;;;;;;;;;6232061;22;19919;-91
2022/11/09 02:35:34;;;;;;;;;;;;;;;;;;6252348;22;19919;-92
2022/11/09 02:38:00;;;;;;;;;;;;;;;;;;6255353;22;20002;-90
2022/11/09 02:40:26;;;;;;;;;;;;;;;;;;6228400;22;20332;-91
2022/11/09 02:42:52;;;;;;;;;;;;;;;;;;6255569;22;19923;-91
2022/11/09 02:45:18;;;;;;;;;;;;;;;;;;6227460;22;20503;-92
2022/11/09 02:47:44;;;;;;;;;;;;;;;;;;6230429;22;19919;-91
2022/11/09 02:50:10;;;;;;;;;;;;;;;;;;6232817;22;19919;-90
2022/11/09 02:52:36;;;;;;;;;;;;;;;;;;6228710;22;20311;-91
2022/11/09 02:55:02;;;;;;;;;;;;;;;;;;6228920;22;20116;-91
2022/11/09 02:57:28;;;;;;;;;;;;;;;;;;6225833;22;19915;-91
2022/11/09 02:59:54;;;;;;;;;;;;;;;;;;6235104;22;19930;-92
2022/11/09 03:02:20;;;;;;;;;;;;;;;;;;6231707;22;19919;-91
2022/11/09 03:04:46;;;;;;;;;;;;;;;;;;6256670;22;19992;-91
2022/11/09 03:07:12;;;;;;;;;;;;;;;;;;6231556;22;20332;-91
2022/11/09 03:09:38;;;;;;;;;;;;;;;;;;6233867;22;19919;-90
2022/11/09 03:12:27;;;;;;;;;;;;;;;;;;6230200;22;19929;-92
2022/11/09 03:14:50;;;;;;;;;;;;;;;;;;6256035;22;19922;-91
2022/11/09 03:17:17;;;;;;;;;;;;;;;;;;6256283;22;19919;-91
2022/11/09 03:19:43;;;;;;;;;;;;;;;;;;6235463;22;19923;-91
2022/11/09 03:22:09;;;;;;;;;;;;;;;;;;6235891;22;20339;-91
2022/11/09 03:24:35;;;;;;;;;;;;;;;;;;6235279;22;20001;-91
2022/11/09 03:27:01;;;;;;;;;;;;;;;;;;6232689;22;19926;-91
2022/11/09 03:29:27;;;;;;;;;;;;;;;;;;6255979;22;19926;-91
2022/11/09 03:31:53;;;;;;;;;;;;;;;;;;6234891;22;19924;-91
2022/11/09 03:34:18;;;;;;;;;;;;;;;;;;6228658;22;19919;-91
2022/11/09 03:36:44;;;;;;;;;;;;;;;;;;6229201;22;20372;-91
2022/11/09 03:39:10;;;;;;;;;;;;;;;;;;6230690;22;20305;-91
2022/11/09 03:41:36;;;;;;;;;;;;;;;;;;6229988;22;20355;-91
2022/11/09 03:44:02;;;;;;;;;;;;;;;;;;6230535;22;19920;-91
2022/11/09 03:46:28;;;;;;;;;;;;;;;;;;6253749;22;20221;-91
2022/11/09 03:48:54;;;;;;;;;;;;;;;;;;6232442;22;20118;-90
2022/11/09 03:51:20;;;;;;;;;;;;;;;;;;6230573;22;19919;-91
2022/11/09 03:53:46;;;;;;;;;;;;;;;;;;6257751;22;19919;-92
2022/11/09 03:56:12;;;;;;;;;;;;;;;;;;6257981;22;19925;-91
2022/11/09 03:58:38;;;;;;;;;;;;;;;;;;6255694;22;19927;-91
2022/11/09 04:01:04;;;;;;;;;;;;;;;;;;6257806;22;19989;-92
2022/11/09 04:03:30;;;;;;;;;;;;;;;;;;6226794;22;19915;-92
2022/11/09 04:05:56;;;;;;;;;;;;;;;;;;6231631;22;19994;-91
2022/11/09 04:08:22;;;;;;;;;;;;;;;;;;6253481;22;20033;-90
2022/11/09 04:10:48;;;;;;;;;;;;;;;;;;6230917;22;19924;-91
2022/11/09 04:13:14;;;;;;;;;;;;;;;;;;6253986;22;19915;-91
2022/11/09 04:15:40;;;;;;;;;;;;;;;;;;6232746;22;19919;-91
2022/11/09 04:18:06;;;;;;;;;;;;;;;;;;6259721;22;19915;-90
2022/11/09 04:20:32;;;;;;;;;;;;;;;;;;6253109;22;20388;-91
2022/11/09 04:22:58;;;;;;;;;;;;;;;;;;6228471;22;20041;-91
2022/11/09 04:25:24;;;;;;;;;;;;;;;;;;6229533;22;19931;-91
2022/11/09 04:27:50;;;;;;;;;;;;;;;;;;6255421;22;19926;-92
2022/11/09 04:30:16;;;;;;;;;;;;;;;;;;6254994;22;19920;-92
2022/11/09 04:32:42;;;;;;;;;;;;;;;;;;6254201;22;19950;-90
2022/11/09 04:35:08;;;;;;;;;;;;;;;;;;6233776;22;20263;-92
2022/11/09 04:37:34;;;;;;;;;;;;;;;;;;6256025;22;20317;-91
2022/11/09 04:40:00;;;;;;;;;;;;;;;;;;6254207;22;19923;-91
2022/11/09 04:42:26;;;;;;;;;;;;;;;;;;6251882;22;19955;-91
2022/11/09 04:44:52;;;;;;;;;;;;;;;;;;6230377;22;19919;-90
2022/11/09 04:47:18;;;;;;;;;;;;;;;;;;6228221;22;19919;-91
2022/11/09 04:49:44;;;;;;;;;;;;;;;;;;6257778;22;19919;-91
2022/11/09 04:52:10;;;;;;;;;;;;;;;;;;6230531;22;20110;-92
2022/11/09 04:54:36;;;;;;;;;;;;;;;;;;6225089;22;19950;-90
2022/11/09 04:57:02;;;;;;;;;;;;;;;;;;6230378;22;19972;-91
2022/11/09 04:59:28;;;;;;;;;;;;;;;;;;6226274;22;19959;-91
2022/11/09 05:01:54;;;;;;;;;;;;;;;;;;6253369;22;19942;-91
2022/11/09 05:04:20;;;;;;;;;;;;;;;;;;6231002;22;20306;-91
2022/11/09 05:06:46;;;;;;;;;;;;;;;;;;6234805;22;20084;-91
2022/11/09 05:09:15;;;;;;;;;;;;;;;;;;6229506;22;19968;-91
2022/11/09 05:11:40;;;;;;;;;;;;;;;;;;6228982;22;19951;-91
2022/11/09 05:14:06;;;;;;;;;;;;;;;;;;6229760;22;19953;-91
2022/11/09 05:16:32;;;;;;;;;;;;;;;;;;6228347;22;20334;-90
2022/11/09 05:18:58;;;;;;;;;;;;;;;;;;6229920;22;19998;-90
2022/11/09 05:21:24;;;;;;;;;;;;;;;;;;6253718;22;19972;-91
2022/11/09 05:24:00;;;;;;;;;;;;;;;;;;6261368;22;20221;-91
2022/11/09 05:26:26;;;;;;;;;;;;;;;;;;6230155;22;19958;-91
2022/11/09 05:28:52;;;;;;;;;;;;;;;;;;6230373;22;19923;-91
2022/11/09 05:31:18;;;;;;;;;;;;;;;;;;6226363;22;19923;-90
2022/11/09 05:33:43;;;;;;;;;;;;;;;;;;6227875;22;19955;-91
2022/11/09 05:36:09;;;;;;;;;;;;;;;;;;6257584;22;19915;-92
2022/11/09 05:38:35;;;;;;;;;;;;;;;;;;6227082;22;19970;-92
2022/11/09 05:41:01;;;;;;;;;;;;;;;;;;6231153;22;19919;-91
2022/11/09 05:43:27;;;;;;;;;;;;;;;;;;6252816;22;19946;-91
2022/11/09 05:45:53;;;;;;;;;;;;;;;;;;6227513;22;19923;-91
2022/11/09 05:48:19;;;;;;;;;;;;;;;;;;6226302;22;20366;-91
2022/11/09 05:50:45;;;;;;;;;;;;;;;;;;6227425;22;19919;-91
2022/11/09 05:53:14;;;;;;;;;;;;;;;;;;6231019;22;19915;-91
2022/11/09 05:55:40;;;;;;;;;;;;;;;;;;6228797;22;19925;-91
2022/11/09 05:58:06;;;;;;;;;;;;;;;;;;6229109;22;20006;-91
2022/11/09 06:00:32;;;;;;;;;;;;;;;;;;6255092;22;20494;-91
2022/11/09 06:02:59;;;;;;;;;;;;;;;;;;6232931;22;19924;-93
2022/11/09 06:05:28;;;;;;;;;;;;;;;;;;6225980;22;19962;-92
2022/11/09 06:07:54;;;;;;;;;;;;;;;;;;6234335;22;19955;-91
2022/11/09 06:10:20;;;;;;;;;;;;;;;;;;6229122;22;19923;-91
2022/11/09 06:12:46;;;;;;;;;;;;;;;;;;6255915;22;19941;-93
2022/11/09 06:15:15;;;;;;;;;;;;;;;;;;6258654;22;20244;-92
2022/11/09 06:17:41;;;;;;;;;;;;;;;;;;6230094;22;20239;-92
2022/11/09 06:20:06;;;;;;;;;;;;;;;;;;6231372;22;19923;-93
2022/11/09 06:25:36;;;;;;;;;;;;;;;;;;6190328;23;19939;-92
2022/11/09 06:28:02;;;;;;;;;;;;;;;;;;6146082;23;19972;-92
2022/11/09 06:30:28;;;;;;;;;;;;;;;;;;6142530;23;19920;-91
2022/11/09 06:32:57;;;;;;;;;;;;;;;;;;6147758;23;19916;-90
2022/11/09 06:35:23;;;;;;;;;;;;;;;;;;6145461;23;20235;-93
2022/11/09 06:37:49;;;;;;;;;;;;;;;;;;6146476;23;19998;-91
2022/11/09 06:40:15;;;;;;;;;;;;;;;;;;6146338;23;19943;-90
2022/11/09 06:42:43;;;;;;;;;;;;;;;;;;6150424;23;20345;-91
2022/11/09 06:45:16;;;;;;;;;;;;;;;;;;6146429;23;20167;-92
2022/11/09 06:47:42;;;;;;;;;;;;;;;;;;6153357;23;20674;-91
2022/11/09 06:50:09;;;;;;;;;;;;;;;;;;6151035;23;20245;-90
2022/11/09 06:52:35;;;;;;;;;;;;;;;;;;6175895;23;19924;-90
2022/11/09 06:55:01;;;;;;;;;;;;;;;;;;6151374;23;20050;-91
2022/11/09 06:57:27;;;;;;;;;;;;;;;;;;6220157;22;19942;-90
2022/11/09 06:59:53;;;;;;;;;;;;;;;;;;6236673;22;19923;-91
2022/11/09 07:02:22;;;;;;;;;;;;;;;;;;6236369;22;20329;-91
2022/11/09 07:04:48;;;;;;;;;;;;;;;;;;6239925;22;19919;-91
2022/11/09 07:07:14;;;;;;;;;;;;;;;;;;6235303;22;19919;-90
2022/11/09 07:09:40;;;;;;;;;;;;;;;;;;6240935;22;19930;-90
2022/11/09 07:12:06;;;;;;;;;;;;;;;;;;6243129;22;19919;-90
2022/11/09 07:14:41;;;;;;;;;;;;;;;;;;6238493;22;19919;-90
2022/11/09 07:17:07;;;;;;;;;;;;;;;;;;6237466;22;19923;-90
2022/11/09 07:19:33;;;;;;;;;;;;;;;;;;6235076;22;20237;-90
2022/11/09 07:21:59;;;;;;;;;;;;;;;;;;6263373;22;19923;-90
2022/11/09 07:24:25;;;;;;;;;;;;;;;;;;6260237;22;19958;-91
2022/11/09 07:26:51;;;;;;;;;;;;;;;;;;6256738;22;20254;-90
2022/11/09 07:29:17;;;;;;;;;;;;;;;;;;6259561;22;19994;-91
2022/11/09 07:31:43;;;;;;;;;;;;;;;;;;6237843;22;19965;-90
2022/11/09 07:34:09;;;;;;;;;;;;;;;;;;6263520;22;20344;-90
2022/11/09 07:36:38;;;;;;;;;;;;;;;;;;6262199;22;19919;-91
2022/11/09 07:39:04;;;;;;;;;;;;;;;;;;6261194;22;19930;-90
2022/11/09 07:41:30;;;;;;;;;;;;;;;;;;6261071;22;20252;-91
2022/11/09 07:43:56;;;;;;;;;;;;;;;;;;6264836;22;19915;-90
2022/11/09 07:46:22;;;;;;;;;;;;;;;;;;6258330;22;20407;-90
2022/11/09 07:48:48;;;;;;;;;;;;;;;;;;6262426;22;19919;-90
2022/11/09 07:51:14;;;;;;;;;;;;;;;;;;6234576;22;19923;-90
2022/11/09 07:53:40;;;;;;;;;;;;;;;;;;6262531;22;20256;-90
2022/11/09 07:56:06;;;;;;;;;;;;;;;;;;6262092;22;19919;-89
2022/11/09 07:58:33;;;;;;;;;;;;;;;;;;6230852;22;19985;-91
2022/11/09 08:00:59;;;;;;;;;;;;;;;;;;6261372;22;20367;-91
2022/11/09 08:03:25;;;;;;;;;;;;;;;;;;6234416;22;19923;-90
2022/11/09 08:05:51;;;;;;;;;;;;;;;;;;6257917;22;20402;-91
2022/11/09 08:08:16;;;;;;;;;;;;;;;;;;6258115;22;19923;-91
2022/11/09 08:10:43;;;;;;;;;;;;;;;;;;6233062;22;19930;-90
2022/11/09 08:13:08;;;;;;;;;;;;;;;;;;6260769;22;19926;-91
2022/11/09 08:15:35;;;;;;;;;;;;;;;;;;6230302;22;19919;-92
2022/11/09 08:18:01;;;;;;;;;;;;;;;;;;6234436;22;20024;-91
2022/11/09 08:20:27;;;;;;;;;;;;;;;;;;6230277;22;20002;-91
2022/11/09 08:22:53;;;;;;;;;;;;;;;;;;6258977;22;19919;-90
2022/11/09 08:25:19;;;;;;;;;;;;;;;;;;6256303;22;19965;-90
2022/11/09 08:27:44;;;;;;;;;;;;;;;;;;6232049;22;20193;-90
2022/11/09 08:30:10;;;;;;;;;;;;;;;;;;6232249;22;19920;-91
2022/11/09 08:32:36;;;;;;;;;;;;;;;;;;6233672;22;19923;-91
2022/11/09 08:35:02;;;;;;;;;;;;;;;;;;6258638;22;19946;-90
2022/11/09 08:37:28;;;;;;;;;;;;;;;;;;6259589;22;19926;-90
2022/11/09 08:39:54;;;;;;;;;;;;;;;;;;6232999;22;20316;-90
2022/11/09 08:42:20;;;;;;;;;;;;;;;;;;6231206;22;19926;-90
2022/11/09 08:44:46;;;;;;;;;;;;;;;;;;6232510;22;19919;-91
2022/11/09 08:47:12;;;;;;;;;;;;;;;;;;6234300;22;19961;-90
2022/11/09 08:49:38;;;;;;;;;;;;;;;;;;6230387;22;19992;-89
2022/11/09 08:52:04;;;;;;;;;;;;;;;;;;6259191;22;20352;-91
2022/11/09 08:54:33;;;;;;;;;;;;;;;;;;6231129;22;19919;-92
2022/11/09 08:56:59;;;;;;;;;;;;;;;;;;6235053;22;19926;-89
2022/11/09 08:59:28;;;;;;;;;;;;;;;;;;6233420;22;20328;-91
2022/11/09 09:01:54;;;;;;;;;;;;;;;;;;6263376;22;19923;-91
2022/11/09 09:04:20;;;;;;;;;;;;;;;;;;6236571;22;19923;-91
2022/11/09 09:06:46;;;;;;;;;;;;;;;;;;6240137;22;20244;-92
2022/11/09 09:09:13;;;;;;;;;;;;;;;;;;6237722;22;19916;-91
2022/11/09 09:11:39;;;;;;;;;;;;;;;;;;6265106;22;19919;-92
2022/11/09 09:14:05;;;;;;;;;;;;;;;;;;6266377;22;20225;-92
2022/11/09 09:16:31;;;;;;;;;;;;;;;;;;6236942;22;19958;-91
2022/11/09 09:18:57;;;;;;;;;;;;;;;;;;6239262;22;19934;-92
2022/11/09 09:21:23;;;;;;;;;;;;;;;;;;6234479;22;19922;-91
2022/11/09 09:23:49;;;;;;;;;;;;;;;;;;6241159;22;19915;-92
2022/11/09 09:26:15;;;;;;;;;;;;;;;;;;6264049;22;20008;-91
2022/11/09 09:28:41;;;;;;;;;;;;;;;;;;6266008;22;19925;-91
2022/11/09 09:31:07;;;;;;;;;;;;;;;;;;6265613;22;19977;-92
2022/11/09 09:33:33;;;;;;;;;;;;;;;;;;6243381;22;19954;-91
2022/11/09 09:35:59;;;;;;;;;;;;;;;;;;6246422;22;19916;-92
2022/11/09 09:38:25;;;;;;;;;;;;;;;;;;6245784;22;19915;-91
2022/11/09 09:40:51;;;;;;;;;;;;;;;;;;6247015;22;20034;-92
2022/11/09 09:43:17;;;;;;;;;;;;;;;;;;6239080;22;19927;-91
2022/11/09 09:45:43;;;;;;;;;;;;;;;;;;6239320;22;20384;-92
2022/11/09 09:48:09;;;;;;;;;;;;;;;;;;6241817;22;20014;-92
2022/11/09 09:50:36;;;;;;;;;;;;;;;;;;6268332;22;19925;-92
2022/11/09 09:53:02;;;;;;;;;;;;;;;;;;6271662;22;19938;-93
2022/11/09 09:55:29;;;;;;;;;;;;;;;;;;6268963;22;20243;-93
2022/11/09 09:57:55;;;;;;;;;;;;;;;;;;6240953;22;20336;-91
2022/11/09 10:00:22;;;;;;;;;;;;;;;;;;6265294;22;20324;-91
2022/11/09 10:02:49;;;;;;;;;;;;;;;;;;6263017;22;19919;-92
2022/11/09 10:05:15;;;;;;;;;;;;;;;;;;6263876;22;20397;-92
2022/11/09 10:07:41;;;;;;;;;;;;;;;;;;6265112;22;19919;-93
2022/11/09 10:10:07;;;;;;;;;;;;;;;;;;6242973;22;19923;-92
2022/11/09 10:12:33;;;;;;;;;;;;;;;;;;6267277;22;20509;-93
2022/11/09 10:14:59;;;;;;;;;;;;;;;;;;6268947;22;19922;-92
2022/11/09 10:17:25;;;;;;;;;;;;;;;;;;6244285;22;19997;-92
2022/11/09 10:19:51;;;;;;;;;;;;;;;;;;6245962;22;20002;-91
2022/11/09 10:22:17;;;;;;;;;;;;;;;;;;6246145;22;19929;-93
2022/11/09 10:24:43;;;;;;;;;;;;;;;;;;6247795;22;19919;-92
2022/11/09 10:27:09;;;;;;;;;;;;;;;;;;6246626;22;19942;-93
2022/11/09 10:29:35;;;;;;;;;;;;;;;;;;6270874;22;19982;-92
2022/11/09 10:32:01;;;;;;;;;;;;;;;;;;6272416;22;19915;-93
2022/11/09 10:34:27;;;;;;;;;;;;;;;;;;6269870;22;19929;-92
2022/11/09 10:36:53;;;;;;;;;;;;;;;;;;6274169;22;19941;-91
2022/11/09 10:39:19;;;;;;;;;;;;;;;;;;6274107;22;19945;-91
2022/11/09 10:41:45;;;;;;;;;;;;;;;;;;6271138;22;19923;-92
2022/11/09 10:44:14;;;;;;;;;;;;;;;;;;6274877;22;19915;-93
2022/11/09 10:46:40;;;;;;;;;;;;;;;;;;6272189;22;20290;-92
2022/11/09 10:49:06;;;;;;;;;;;;;;;;;;6253885;22;19919;-92
2022/11/09 10:51:32;;;;;;;;;;;;;;;;;;6268823;22;19919;-92
2022/11/09 10:53:58;;;;;;;;;;;;;;;;;;6270253;22;19923;-92
2022/11/09 10:56:26;;;;;;;;;;;;;;;;;;6271660;22;19962;-92
2022/11/09 10:58:52;;;;;;;;;;;;;;;;;;6274252;22;19923;-93
2022/11/09 11:01:18;;;;;;;;;;;;;;;;;;6244953;22;19919;-93
2022/11/09 11:03:44;;;;;;;;;;;;;;;;;;6272867;22;19950;-92
2022/11/09 11:06:10;;;;;;;;;;;;;;;;;;6251097;22;20038;-91
2022/11/09 11:08:36;;;;;;;;;;;;;;;;;;6288280;22;19919;-92
2022/11/09 11:11:01;;;;;;;;;;;;;;;;;;6267530;22;19922;-92
2022/11/09 11:13:27;;;;;;;;;;;;;;;;;;6264390;22;19927;-91
2022/11/09 11:15:53;;;;;;;;;;;;;;;;;;6267017;22;19950;-91
2022/11/09 11:18:20;;;;;;;;;;;;;;;;;;6253042;22;19998;-94
2022/11/09 11:20:46;;;;;;;;;;;;;;;;;;6269938;22;19919;-93
2022/11/09 11:23:12;;;;;;;;;;;;;;;;;;6269414;22;19926;-92
2022/11/09 11:25:38;;;;;;;;;;;;;;;;;;6246246;22;19922;-92
2022/11/09 11:28:04;;;;;;;;;;;;;;;;;;6245532;22;19923;-92
2022/11/09 11:30:30;;;;;;;;;;;;;;;;;;6242708;22;20344;-92
2022/11/09 11:32:56;;;;;;;;;;;;;;;;;;6242214;22;19941;-91
2022/11/09 11:35:22;;;;;;;;;;;;;;;;;;6266762;22;20368;-92
2022/11/09 11:37:48;;;;;;;;;;;;;;;;;;6269184;22;19915;-92
2022/11/09 11:40:14;;;;;;;;;;;;;;;;;;6239610;22;20232;-92
2022/11/09 11:42:41;;;;;;;;;;;;;;;;;;6243950;22;19915;-92
2022/11/09 11:45:07;;;;;;;;;;;;;;;;;;6268146;22;19919;-91
2022/11/09 11:47:33;;;;;;;;;;;;;;;;;;6265350;22;19923;-92
2022/11/09 11:49:59;;;;;;;;;;;;;;;;;;6239967;22;19926;-92
2022/11/09 11:52:25;;;;;;;;;;;;;;;;;;6264692;22;20362;-93
2022/11/09 11:54:51;;;;;;;;;;;;;;;;;;6242091;22;20018;-92
2022/11/09 11:57:17;;;;;;;;;;;;;;;;;;6240393;22;19919;-91
2022/11/09 11:59:43;;;;;;;;;;;;;;;;;;6238825;22;20287;-92
2022/11/09 12:02:09;;;;;;;;;;;;;;;;;;6266785;22;19915;-92
2022/11/09 12:04:35;;;;;;;;;;;;;;;;;;6263273;22;20328;-92
2022/11/09 12:07:01;;;;;;;;;;;;;;;;;;6241206;22;19922;-91
2022/11/09 12:09:27;;;;;;;;;;;;;;;;;;6263250;22;19989;-92
2022/11/09 12:11:53;;;;;;;;;;;;;;;;;;6242822;22;19980;-92
2022/11/09 12:14:19;;;;;;;;;;;;;;;;;;6242960;22;19915;-92
2022/11/09 12:16:45;;;;;;;;;;;;;;;;;;6252307;22;19922;-91
2022/11/09 12:19:11;;;;;;;;;;;;;;;;;;6247052;22;20304;-92
2022/11/09 12:21:37;;;;;;;;;;;;;;;;;;6245885;22;19926;-92
2022/11/09 12:24:03;;;;;;;;;;;;;;;;;;6260030;22;19943;-92
2022/11/09 12:26:29;;;;;;;;;;;;;;;;;;6244642;22;19930;-91
2022/11/09 12:28:55;;;;;;;;;;;;;;;;;;6239761;22;19985;-91
2022/11/09 12:31:23;;;;;;;;;;;;;;;;;;6237475;22;20389;-93
2022/11/09 12:33:49;;;;;;;;;;;;;;;;;;6266139;22;19954;-93
2022/11/09 12:36:15;;;;;;;;;;;;;;;;;;6263116;22;19922;-91
2022/11/09 12:38:41;;;;;;;;;;;;;;;;;;6241195;22;19919;-91
2022/11/09 12:41:07;;;;;;;;;;;;;;;;;;6238830;22;20251;-92
2022/11/09 12:43:32;;;;;;;;;;;;;;;;;;6237899;22;20282;-93
2022/11/09 12:45:58;;;;;;;;;;;;;;;;;;6239679;22;19919;-92
2022/11/09 12:48:24;;;;;;;;;;;;;;;;;;6262338;22;19915;-92
2022/11/09 12:50:50;;;;;;;;;;;;;;;;;;6238288;22;20342;-91
2022/11/09 12:53:16;;;;;;;;;;;;;;;;;;6263988;22;19919;-91
2022/11/09 12:55:42;;;;;;;;;;;;;;;;;;6265464;22;19915;-92
2022/11/09 12:58:08;;;;;;;;;;;;;;;;;;6263882;22;20403;-92
2022/11/09 13:00:34;;;;;;;;;;;;;;;;;;6263291;22;19923;-92
2022/11/09 13:03:00;;;;;;;;;;;;;;;;;;6238359;22;20279;-93
2022/11/09 13:05:26;;;;;;;;;;;;;;;;;;6263690;22;20369;-91
2022/11/09 13:07:52;;;;;;;;;;;;;;;;;;6243724;22;20333;-92
2022/11/09 13:10:18;;;;;;;;;;;;;;;;;;6238401;22;19927;-92
2022/11/09 13:12:44;;;;;;;;;;;;;;;;;;6244578;22;19923;-92
2022/11/09 13:15:10;;;;;;;;;;;;;;;;;;6242804;22;19921;-92
2022/11/09 13:17:36;;;;;;;;;;;;;;;;;;6266184;22;19916;-92
2022/11/09 13:20:02;;;;;;;;;;;;;;;;;;6242686;22;20382;-91
2022/11/09 13:22:28;;;;;;;;;;;;;;;;;;6266341;22;19915;-92
2022/11/09 13:24:54;;;;;;;;;;;;;;;;;;6267562;22;19919;-92
2022/11/09 13:27:20;;;;;;;;;;;;;;;;;;6267207;22;20235;-92
2022/11/09 13:29:46;;;;;;;;;;;;;;;;;;6240682;22;19938;-92
2022/11/09 13:32:15;;;;;;;;;;;;;;;;;;6268768;22;19919;-91
2022/11/09 13:34:41;;;;;;;;;;;;;;;;;;6243911;22;19934;-92
2022/11/09 13:37:07;;;;;;;;;;;;;;;;;;6242900;22;19919;-91
2022/11/09 13:39:33;;;;;;;;;;;;;;;;;;6239902;22;20037;-91
2022/11/09 13:41:59;;;;;;;;;;;;;;;;;;6242678;22;19919;-92
2022/11/09 13:44:25;;;;;;;;;;;;;;;;;;6239457;22;19923;-92
2022/11/09 13:46:52;;;;;;;;;;;;;;;;;;6269328;22;20302;-91
2022/11/09 13:49:18;;;;;;;;;;;;;;;;;;6265925;22;19945;-91
2022/11/09 13:51:45;;;;;;;;;;;;;;;;;;6242882;22;19954;-91
2022/11/09 13:54:10;;;;;;;;;;;;;;;;;;6268818;22;19923;-91
2022/11/09 13:56:40;;;;;;;;;;;;;;;;;;6240268;22;19919;-92
2022/11/09 13:59:06;;;;;;;;;;;;;;;;;;6242305;22;20256;-92
2022/11/09 14:01:31;;;;;;;;;;;;;;;;;;6244465;22;20034;-91
2022/11/09 14:03:58;;;;;;;;;;;;;;;;;;6277070;22;19926;-92
2022/11/09 14:06:24;;;;;;;;;;;;;;;;;;6273492;22;20248;-92
2022/11/09 14:08:50;;;;;;;;;;;;;;;;;;6247066;22;19962;-91
2022/11/09 14:11:16;;;;;;;;;;;;;;;;;;6247857;22;19919;-92
2022/11/09 14:13:42;;;;;;;;;;;;;;;;;;6247379;22;19950;-91
2022/11/09 14:16:08;;;;;;;;;;;;;;;;;;6242772;22;19919;-91
2022/11/09 14:18:34;;;;;;;;;;;;;;;;;;6264678;22;19969;-92
2022/11/09 14:21:00;;;;;;;;;;;;;;;;;;6241343;22;20229;-92
2022/11/09 14:23:26;;;;;;;;;;;;;;;;;;6264948;22;19919;-92
2022/11/09 14:25:52;;;;;;;;;;;;;;;;;;6265622;22;20256;-92
2022/11/09 14:28:18;;;;;;;;;;;;;;;;;;6263927;22;20239;-92
2022/11/09 14:30:54;;;;;;;;;;;;;;;;;;6261971;22;19915;-92
2022/11/09 14:33:31;;;;;;;;;;;;;;;;;;6265906;22;20359;-92
2022/11/09 14:35:57;;;;;;;;;;;;;;;;;;6239726;22;20233;-92
2022/11/09 14:38:23;;;;;;;;;;;;;;;;;;6238911;22;20343;-92
2022/11/09 14:40:52;;;;;;;;;;;;;;;;;;6240913;22;19919;-92
2022/11/09 14:43:19;;;;;;;;;;;;;;;;;;6240025;22;19927;-92
2022/11/09 14:45:48;;;;;;;;;;;;;;;;;;6267214;22;19956;-93
2022/11/09 14:48:14;;;;;;;;;;;;;;;;;;6241382;22;19915;-92
2022/11/09 14:50:40;;;;;;;;;;;;;;;;;;6243902;22;19921;-91
2022/11/09 14:53:09;;;;;;;;;;;;;;;;;;6240029;22;19919;-92
2022/11/09 14:55:43;;;;;;;;;;;;;;;;;;6240253;22;20376;-93
2022/11/09 14:58:09;;;;;;;;;;;;;;;;;;6237479;22;19919;-91
2022/11/09 15:00:35;;;;;;;;;;;;;;;;;;6236419;22;19974;-91
2022/11/09 15:03:01;;;;;;;;;;;;;;;;;;6265482;22;20000;-91
2022/11/09 15:05:27;;;;;;;;;;;;;;;;;;6263427;22;19919;-92
2022/11/09 15:07:53;;;;;;;;;;;;;;;;;;6265774;22;19919;-92
2022/11/09 15:10:22;;;;;;;;;;;;;;;;;;6237074;22;20370;-92
2022/11/09 15:12:48;;;;;;;;;;;;;;;;;;6240254;22;19931;-93
2022/11/09 15:15:14;;;;;;;;;;;;;;;;;;6237676;22;19919;-92
2022/11/09 15:17:40;;;;;;;;;;;;;;;;;;6265382;22;19995;-92
2022/11/09 15:20:06;;;;;;;;;;;;;;;;;;6239778;22;20668;-92
2022/11/09 15:22:32;;;;;;;;;;;;;;;;;;6237730;22;19951;-92
2022/11/09 15:24:58;;;;;;;;;;;;;;;;;;6239217;22;19919;-92
2022/11/09 15:27:45;;;;;;;;;;;;;;;;;;6231174;22;20368;-90
2022/11/09 15:30:24;;;;;;;;;;;;;;;;;;6261271;22;20327;-91
2022/11/09 15:41:53;;;;;;;;;;;;;;;;;;6117505;23;19927;-90
2022/11/09 15:44:29;;;;;;;;;;;;;;;;;;6117592;23;20454;-90
2022/11/09 15:47:03;;;;;;;;;;;;;;;;;;6117408;23;20270;-90
2022/11/09 15:49:42;;;;;;;;;;;;;;;;;;;;;
2022/11/09 15:52:20;;;;;;;;;;;;;;;;;;6262372;22;19969;-91
2022/11/09 15:55:23;;;;;;;;;;;;;;;;;;;;;
2022/11/09 15:57:57;;;;;;;;;;;;;;;;;;6229135;22;19919;-90
2022/11/09 16:00:29;;;;;;;;;;;;;;;;;;6233928;22;19958;-91
2022/11/09 16:03:08;;;;;;;;;;;;;;;;;;;;;
2022/11/09 16:14:20;;;;;;;;;;;;;;;;;;6196143;22;19924;-91
2022/11/09 16:17:07;;;;;;;;;;;;;;;;;;6149861;23;19945;-91
2022/11/09 16:19:41;;;;;;;;;;;;;;;;;;6189317;23;20316;-91
2022/11/09 16:22:11;;;;;;;;;;;;;;;;;;6204337;23;20281;-91
2022/11/09 16:24:45;;;;;;;;;;;;;;;;;;6174271;23;19955;-91
2022/11/09 16:27:12;;;;;;;;;;;;;;;;;;6178932;23;20316;-91
2022/11/09 16:29:41;;;;;;;;;;;;;;;;;;6179491;23;19926;-91
2022/11/09 16:35:17;;;;;;;;;;;;;;;;;;6166543;23;20345;-91
2022/11/09 16:37:43;;;;;;;;;;;;;;;;;;6121352;23;20007;-92
2022/11/09 16:40:34;;;;;;;;;;;;;;;;;;;;;
2022/11/09 16:43:01;;;;;;;;;;;;;;;;;;6194105;23;19919;-91
2022/11/09 16:45:30;;;;;;;;;;;;;;;;;;6200825;23;19919;-91
2022/11/09 16:47:59;;;;;;;;;;;;;;;;;;6203390;23;19920;-91
2022/11/09 16:50:25;;;;;;;;;;;;;;;;;;6199972;23;20001;-91
2022/11/09 16:52:53;;;;;;;;;;;;;;;;;;6180674;23;20332;-90
2022/11/09 16:55:19;;;;;;;;;;;;;;;;;;6199986;23;19990;-91
2022/11/09 16:57:45;;;;;;;;;;;;;;;;;;6196117;23;20010;-92
2022/11/09 17:00:12;;;;;;;;;;;;;;;;;;6196230;23;19923;-91
2022/11/09 17:02:38;;;;;;;;;;;;;;;;;;6197830;23;19919;-91
2022/11/09 17:05:04;;;;;;;;;;;;;;;;;;6201724;22;19938;-91
2022/11/09 17:07:36;;;;;;;;;;;;;;;;;;6231462;22;19923;-91
2022/11/09 17:10:02;;;;;;;;;;;;;;;;;;6259711;22;19919;-91